sensor_id;sensor_type;location;lat;lon;timestamp;P1;durP1;ratioP1;P2;durP2;ratioP2
4122;SDS011;2075;51.062;6.920;2023-05-24T00:02:43;10.53;;;3.10;;
4122;SDS011;2075;51.062;6.920;2023-05-24T00:05:28;10.73;;;3.00;;
4122;SDS011;2075;51.062;6.920;2023-05-24T00:08:14;14.10;;;3.63;;
4122;SDS011;2075;51.062;6.920;2023-05-24T00:11:00;14.20;;;3.20;;
4122;SDS011;2075;51.062;6.920;2023-05-24T00:13:45;18.57;;;3.60;;
4122;SDS011;2075;51.062;6.920;2023-05-24T00:16:31;7.03;;;2.97;;
4122;SDS011;2075;51.062;6.920;2023-05-24T00:19:18;18.30;;;2.90;;
4122;SDS011;2075;51.062;6.920;2023-05-24T00:22:05;10.70;;;2.97;;
4122;SDS011;2075;51.062;6.920;2023-05-24T00:24:53;9.93;;;3.43;;
4122;SDS011;2075;51.062;6.920;2023-05-24T00:27:38;7.93;;;3.13;;
4122;SDS011;2075;51.062;6.920;2023-05-24T00:30:24;6.20;;;2.90;;
4122;SDS011;2075;51.062;6.920;2023-05-24T00:33:11;7.33;;;3.73;;
4122;SDS011;2075;51.062;6.920;2023-05-24T00:35:58;13.93;;;3.27;;
4122;SDS011;2075;51.062;6.920;2023-05-24T00:38:43;11.03;;;3.00;;
4122;SDS011;2075;51.062;6.920;2023-05-24T00:41:28;20.10;;;3.43;;
4122;SDS011;2075;51.062;6.920;2023-05-24T00:44:14;18.50;;;3.47;;
4122;SDS011;2075;51.062;6.920;2023-05-24T00:46:59;11.10;;;3.83;;
4122;SDS011;2075;51.062;6.920;2023-05-24T00:49:45;6.37;;;3.27;;
4122;SDS011;2075;51.062;6.920;2023-05-24T00:52:32;13.37;;;3.53;;
4122;SDS011;2075;51.062;6.920;2023-05-24T00:55:18;11.07;;;3.13;;
4122;SDS011;2075;51.062;6.920;2023-05-24T00:58:04;18.13;;;3.90;;
4122;SDS011;2075;51.062;6.920;2023-05-24T01:00:49;9.03;;;3.17;;
4122;SDS011;2075;51.062;6.920;2023-05-24T01:03:35;9.63;;;3.37;;
4122;SDS011;2075;51.062;6.920;2023-05-24T01:06:22;8.30;;;3.20;;
4122;SDS011;2075;51.062;6.920;2023-05-24T01:09:12;16.47;;;3.53;;
4122;SDS011;2075;51.062;6.920;2023-05-24T01:12:06;10.50;;;3.83;;
4122;SDS011;2075;51.062;6.920;2023-05-24T01:15:01;21.53;;;5.20;;
4122;SDS011;2075;51.062;6.920;2023-05-24T01:17:57;12.93;;;3.63;;
4122;SDS011;2075;51.062;6.920;2023-05-24T01:20:48;15.37;;;4.20;;
4122;SDS011;2075;51.062;6.920;2023-05-24T01:23:43;9.80;;;2.97;;
4122;SDS011;2075;51.062;6.920;2023-05-24T01:26:39;11.20;;;3.33;;
4122;SDS011;2075;51.062;6.920;2023-05-24T01:29:33;19.53;;;3.53;;
4122;SDS011;2075;51.062;6.920;2023-05-24T01:32:19;8.87;;;3.30;;
4122;SDS011;2075;51.062;6.920;2023-05-24T01:35:05;9.63;;;3.60;;
4122;SDS011;2075;51.062;6.920;2023-05-24T01:37:50;14.20;;;3.80;;
4122;SDS011;2075;51.062;6.920;2023-05-24T01:40:36;7.17;;;3.27;;
4122;SDS011;2075;51.062;6.920;2023-05-24T01:43:25;15.90;;;4.40;;
4122;SDS011;2075;51.062;6.920;2023-05-24T01:46:19;10.97;;;3.67;;
4122;SDS011;2075;51.062;6.920;2023-05-24T01:49:11;6.50;;;3.13;;
4122;SDS011;2075;51.062;6.920;2023-05-24T01:52:04;12.63;;;4.20;;
4122;SDS011;2075;51.062;6.920;2023-05-24T01:54:55;14.97;;;4.00;;
4122;SDS011;2075;51.062;6.920;2023-05-24T01:57:42;17.33;;;3.67;;
4122;SDS011;2075;51.062;6.920;2023-05-24T02:00:30;13.47;;;4.17;;
4122;SDS011;2075;51.062;6.920;2023-05-24T02:03:18;13.20;;;4.03;;
4122;SDS011;2075;51.062;6.920;2023-05-24T02:06:04;13.23;;;3.03;;
4122;SDS011;2075;51.062;6.920;2023-05-24T02:08:50;9.53;;;3.30;;
4122;SDS011;2075;51.062;6.920;2023-05-24T02:11:36;23.30;;;3.97;;
4122;SDS011;2075;51.062;6.920;2023-05-24T02:14:21;12.40;;;4.13;;
4122;SDS011;2075;51.062;6.920;2023-05-24T02:17:07;10.60;;;3.47;;
4122;SDS011;2075;51.062;6.920;2023-05-24T02:19:53;11.83;;;3.70;;
4122;SDS011;2075;51.062;6.920;2023-05-24T02:22:39;14.50;;;3.63;;
4122;SDS011;2075;51.062;6.920;2023-05-24T02:25:24;23.97;;;3.83;;
4122;SDS011;2075;51.062;6.920;2023-05-24T02:28:10;11.53;;;3.80;;
4122;SDS011;2075;51.062;6.920;2023-05-24T02:30:55;9.67;;;3.57;;
4122;SDS011;2075;51.062;6.920;2023-05-24T02:33:40;16.17;;;3.70;;
4122;SDS011;2075;51.062;6.920;2023-05-24T02:36:27;13.50;;;3.60;;
4122;SDS011;2075;51.062;6.920;2023-05-24T02:39:13;13.13;;;3.77;;
4122;SDS011;2075;51.062;6.920;2023-05-24T02:41:58;11.30;;;3.90;;
4122;SDS011;2075;51.062;6.920;2023-05-24T02:44:43;11.93;;;3.17;;
4122;SDS011;2075;51.062;6.920;2023-05-24T02:47:30;10.47;;;3.90;;
4122;SDS011;2075;51.062;6.920;2023-05-24T02:50:16;13.23;;;3.37;;
4122;SDS011;2075;51.062;6.920;2023-05-24T02:53:02;9.83;;;3.80;;
4122;SDS011;2075;51.062;6.920;2023-05-24T02:55:48;7.83;;;3.30;;
4122;SDS011;2075;51.062;6.920;2023-05-24T02:58:33;17.77;;;4.10;;
4122;SDS011;2075;51.062;6.920;2023-05-24T03:01:23;12.23;;;3.30;;
4122;SDS011;2075;51.062;6.920;2023-05-24T03:04:10;10.30;;;3.73;;
4122;SDS011;2075;51.062;6.920;2023-05-24T03:06:55;16.53;;;3.93;;
4122;SDS011;2075;51.062;6.920;2023-05-24T03:09:42;17.57;;;3.70;;
4122;SDS011;2075;51.062;6.920;2023-05-24T03:12:28;15.43;;;4.33;;
4122;SDS011;2075;51.062;6.920;2023-05-24T03:15:13;4.63;;;3.10;;
4122;SDS011;2075;51.062;6.920;2023-05-24T03:17:58;9.90;;;4.20;;
4122;SDS011;2075;51.062;6.920;2023-05-24T03:20:44;14.63;;;3.80;;
4122;SDS011;2075;51.062;6.920;2023-05-24T03:23:30;14.33;;;3.80;;
4122;SDS011;2075;51.062;6.920;2023-05-24T03:26:17;11.60;;;4.37;;
4122;SDS011;2075;51.062;6.920;2023-05-24T03:29:03;19.70;;;3.43;;
4122;SDS011;2075;51.062;6.920;2023-05-24T03:31:53;17.27;;;4.13;;
4122;SDS011;2075;51.062;6.920;2023-05-24T03:34:39;12.67;;;4.27;;
4122;SDS011;2075;51.062;6.920;2023-05-24T03:37:26;13.50;;;4.27;;
4122;SDS011;2075;51.062;6.920;2023-05-24T03:40:11;13.80;;;4.23;;
4122;SDS011;2075;51.062;6.920;2023-05-24T03:43:28;18.00;;;4.20;;
4122;SDS011;2075;51.062;6.920;2023-05-24T03:46:15;18.43;;;4.00;;
4122;SDS011;2075;51.062;6.920;2023-05-24T03:49:01;22.37;;;4.47;;
4122;SDS011;2075;51.062;6.920;2023-05-24T03:51:46;14.03;;;4.10;;
4122;SDS011;2075;51.062;6.920;2023-05-24T03:54:32;16.33;;;4.30;;
4122;SDS011;2075;51.062;6.920;2023-05-24T03:57:17;9.70;;;3.70;;
4122;SDS011;2075;51.062;6.920;2023-05-24T04:00:05;27.20;;;7.00;;
4122;SDS011;2075;51.062;6.920;2023-05-24T04:02:58;20.03;;;5.30;;
4122;SDS011;2075;51.062;6.920;2023-05-24T04:05:46;15.07;;;5.97;;
4122;SDS011;2075;51.062;6.920;2023-05-24T04:08:32;13.70;;;4.37;;
4122;SDS011;2075;51.062;6.920;2023-05-24T04:11:17;10.57;;;4.17;;
4122;SDS011;2075;51.062;6.920;2023-05-24T04:14:03;12.07;;;3.80;;
4122;SDS011;2075;51.062;6.920;2023-05-24T04:16:50;16.43;;;4.70;;
4122;SDS011;2075;51.062;6.920;2023-05-24T04:19:37;9.37;;;4.07;;
4122;SDS011;2075;51.062;6.920;2023-05-24T04:22:22;19.10;;;4.73;;
4122;SDS011;2075;51.062;6.920;2023-05-24T04:25:08;19.33;;;3.83;;
4122;SDS011;2075;51.062;6.920;2023-05-24T04:27:53;16.50;;;4.70;;
4122;SDS011;2075;51.062;6.920;2023-05-24T04:30:41;12.33;;;5.20;;
4122;SDS011;2075;51.062;6.920;2023-05-24T04:33:30;13.63;;;3.90;;
4122;SDS011;2075;51.062;6.920;2023-05-24T04:36:16;16.40;;;6.13;;
4122;SDS011;2075;51.062;6.920;2023-05-24T04:39:02;16.53;;;4.80;;
4122;SDS011;2075;51.062;6.920;2023-05-24T04:41:48;18.97;;;4.67;;
4122;SDS011;2075;51.062;6.920;2023-05-24T04:44:35;15.50;;;4.53;;
4122;SDS011;2075;51.062;6.920;2023-05-24T04:47:21;17.57;;;4.30;;
4122;SDS011;2075;51.062;6.920;2023-05-24T04:50:09;14.03;;;4.53;;
4122;SDS011;2075;51.062;6.920;2023-05-24T04:52:54;15.38;;;5.20;;
4122;SDS011;2075;51.062;6.920;2023-05-24T04:58:50;9.07;;;3.70;;
4122;SDS011;2075;51.062;6.920;2023-05-24T05:01:45;11.30;;;3.83;;
4122;SDS011;2075;51.062;6.920;2023-05-24T05:04:35;11.07;;;4.07;;
4122;SDS011;2075;51.062;6.920;2023-05-24T05:07:24;20.33;;;4.17;;
4122;SDS011;2075;51.062;6.920;2023-05-24T05:10:10;12.53;;;3.90;;
4122;SDS011;2075;51.062;6.920;2023-05-24T05:13:17;11.57;;;4.57;;
4122;SDS011;2075;51.062;6.920;2023-05-24T05:16:05;11.97;;;4.20;;
4122;SDS011;2075;51.062;6.920;2023-05-24T05:18:52;16.23;;;4.00;;
4122;SDS011;2075;51.062;6.920;2023-05-24T05:21:41;12.70;;;3.90;;
4122;SDS011;2075;51.062;6.920;2023-05-24T05:24:32;7.00;;;3.37;;
4122;SDS011;2075;51.062;6.920;2023-05-24T05:27:17;10.10;;;3.60;;
4122;SDS011;2075;51.062;6.920;2023-05-24T05:30:04;11.03;;;4.30;;
4122;SDS011;2075;51.062;6.920;2023-05-24T05:32:51;10.30;;;3.90;;
4122;SDS011;2075;51.062;6.920;2023-05-24T05:35:40;22.43;;;4.10;;
4122;SDS011;2075;51.062;6.920;2023-05-24T05:38:26;13.33;;;3.73;;
4122;SDS011;2075;51.062;6.920;2023-05-24T05:41:14;12.70;;;3.97;;
4122;SDS011;2075;51.062;6.920;2023-05-24T05:44:06;8.07;;;3.57;;
4122;SDS011;2075;51.062;6.920;2023-05-24T05:46:52;10.10;;;4.17;;
4122;SDS011;2075;51.062;6.920;2023-05-24T05:49:39;12.43;;;4.40;;
4122;SDS011;2075;51.062;6.920;2023-05-24T05:52:24;15.83;;;7.50;;
4122;SDS011;2075;51.062;6.920;2023-05-24T05:55:10;10.73;;;4.75;;
4122;SDS011;2075;51.062;6.920;2023-05-24T05:57:58;10.87;;;4.00;;
4122;SDS011;2075;51.062;6.920;2023-05-24T06:00:47;13.40;;;4.63;;
4122;SDS011;2075;51.062;6.920;2023-05-24T06:03:39;11.90;;;3.97;;
4122;SDS011;2075;51.062;6.920;2023-05-24T06:06:31;15.30;;;4.57;;
4122;SDS011;2075;51.062;6.920;2023-05-24T06:09:18;13.07;;;4.50;;
4122;SDS011;2075;51.062;6.920;2023-05-24T06:12:04;16.83;;;4.80;;
4122;SDS011;2075;51.062;6.920;2023-05-24T06:14:51;22.60;;;5.37;;
4122;SDS011;2075;51.062;6.920;2023-05-24T06:17:44;19.40;;;5.60;;
4122;SDS011;2075;51.062;6.920;2023-05-24T06:26:23;17.87;;;4.80;;
4122;SDS011;2075;51.062;6.920;2023-05-24T06:29:17;17.40;;;5.00;;
4122;SDS011;2075;51.062;6.920;2023-05-24T06:32:14;11.13;;;4.30;;
4122;SDS011;2075;51.062;6.920;2023-05-24T06:35:01;21.80;;;5.50;;
4122;SDS011;2075;51.062;6.920;2023-05-24T06:37:52;21.63;;;5.20;;
4122;SDS011;2075;51.062;6.920;2023-05-24T06:40:48;17.77;;;4.87;;
4122;SDS011;2075;51.062;6.920;2023-05-24T06:43:37;13.13;;;4.67;;
4122;SDS011;2075;51.062;6.920;2023-05-24T06:46:27;20.37;;;4.50;;
4122;SDS011;2075;51.062;6.920;2023-05-24T06:49:22;18.07;;;5.10;;
4122;SDS011;2075;51.062;6.920;2023-05-24T06:52:11;19.83;;;5.22;;
4122;SDS011;2075;51.062;6.920;2023-05-24T06:55:09;18.98;;;4.97;;
4122;SDS011;2075;51.062;6.920;2023-05-24T06:58:10;14.07;;;4.63;;
4122;SDS011;2075;51.062;6.920;2023-05-24T07:00:57;28.80;;;10.52;;
4122;SDS011;2075;51.062;6.920;2023-05-24T07:03:42;16.50;;;4.70;;
4122;SDS011;2075;51.062;6.920;2023-05-24T07:06:30;15.73;;;4.57;;
4122;SDS011;2075;51.062;6.920;2023-05-24T07:09:16;16.43;;;5.13;;
4122;SDS011;2075;51.062;6.920;2023-05-24T07:12:03;12.20;;;4.60;;
4122;SDS011;2075;51.062;6.920;2023-05-24T07:14:51;15.82;;;4.53;;
4122;SDS011;2075;51.062;6.920;2023-05-24T07:17:39;14.53;;;4.23;;
4122;SDS011;2075;51.062;6.920;2023-05-24T07:20:25;12.90;;;4.00;;
4122;SDS011;2075;51.062;6.920;2023-05-24T07:23:12;16.50;;;4.77;;
4122;SDS011;2075;51.062;6.920;2023-05-24T07:25:57;17.17;;;4.30;;
4122;SDS011;2075;51.062;6.920;2023-05-24T07:28:43;13.33;;;4.13;;
4122;SDS011;2075;51.062;6.920;2023-05-24T07:31:29;26.40;;;4.70;;
4122;SDS011;2075;51.062;6.920;2023-05-24T07:34:20;14.97;;;3.90;;
4122;SDS011;2075;51.062;6.920;2023-05-24T07:37:06;13.87;;;3.93;;
4122;SDS011;2075;51.062;6.920;2023-05-24T07:39:53;17.87;;;5.00;;
4122;SDS011;2075;51.062;6.920;2023-05-24T07:42:39;12.70;;;3.80;;
4122;SDS011;2075;51.062;6.920;2023-05-24T07:45:24;13.33;;;4.17;;
4122;SDS011;2075;51.062;6.920;2023-05-24T07:48:14;19.20;;;4.90;;
4122;SDS011;2075;51.062;6.920;2023-05-24T07:51:00;9.27;;;3.87;;
4122;SDS011;2075;51.062;6.920;2023-05-24T07:54:00;14.37;;;4.10;;
4122;SDS011;2075;51.062;6.920;2023-05-24T07:56:47;17.57;;;4.40;;
4122;SDS011;2075;51.062;6.920;2023-05-24T07:59:33;11.03;;;5.10;;
4122;SDS011;2075;51.062;6.920;2023-05-24T08:02:29;9.10;;;3.80;;
4122;SDS011;2075;51.062;6.920;2023-05-24T08:05:14;13.30;;;4.20;;
4122;SDS011;2075;51.062;6.920;2023-05-24T08:08:00;8.90;;;4.40;;
4122;SDS011;2075;51.062;6.920;2023-05-24T08:10:47;7.83;;;3.93;;
4122;SDS011;2075;51.062;6.920;2023-05-24T08:13:34;12.20;;;4.23;;
4122;SDS011;2075;51.062;6.920;2023-05-24T08:16:19;12.43;;;4.23;;
4122;SDS011;2075;51.062;6.920;2023-05-24T08:19:05;15.53;;;5.20;;
4122;SDS011;2075;51.062;6.920;2023-05-24T08:21:50;15.13;;;4.80;;
4122;SDS011;2075;51.062;6.920;2023-05-24T08:24:37;17.10;;;4.60;;
4122;SDS011;2075;51.062;6.920;2023-05-24T08:27:24;13.73;;;4.70;;
4122;SDS011;2075;51.062;6.920;2023-05-24T08:30:15;19.23;;;5.03;;
4122;SDS011;2075;51.062;6.920;2023-05-24T08:33:02;9.80;;;4.50;;
4122;SDS011;2075;51.062;6.920;2023-05-24T08:35:48;12.07;;;4.90;;
4122;SDS011;2075;51.062;6.920;2023-05-24T08:38:34;16.60;;;5.30;;
4122;SDS011;2075;51.062;6.920;2023-05-24T08:41:20;18.53;;;4.73;;
4122;SDS011;2075;51.062;6.920;2023-05-24T08:44:05;15.07;;;5.40;;
4122;SDS011;2075;51.062;6.920;2023-05-24T08:46:53;16.15;;;5.78;;
4122;SDS011;2075;51.062;6.920;2023-05-24T08:49:39;16.43;;;5.37;;
4122;SDS011;2075;51.062;6.920;2023-05-24T08:52:25;9.97;;;4.80;;
4122;SDS011;2075;51.062;6.920;2023-05-24T08:55:17;19.03;;;6.90;;
4122;SDS011;2075;51.062;6.920;2023-05-24T08:58:05;21.75;;;8.30;;
4122;SDS011;2075;51.062;6.920;2023-05-24T09:00:52;18.10;;;5.83;;
4122;SDS011;2075;51.062;6.920;2023-05-24T09:03:39;12.83;;;5.67;;
4122;SDS011;2075;51.062;6.920;2023-05-24T09:06:24;18.10;;;5.93;;
4122;SDS011;2075;51.062;6.920;2023-05-24T09:09:10;15.73;;;6.10;;
4122;SDS011;2075;51.062;6.920;2023-05-24T09:11:58;20.00;;;5.93;;
4122;SDS011;2075;51.062;6.920;2023-05-24T09:14:48;17.80;;;8.63;;
4122;SDS011;2075;51.062;6.920;2023-05-24T09:17:37;20.60;;;8.70;;
4122;SDS011;2075;51.062;6.920;2023-05-24T09:20:25;19.05;;;9.05;;
4122;SDS011;2075;51.062;6.920;2023-05-24T09:23:11;15.90;;;8.60;;
4122;SDS011;2075;51.062;6.920;2023-05-24T09:25:57;15.13;;;7.77;;
4122;SDS011;2075;51.062;6.920;2023-05-24T09:28:53;15.17;;;6.83;;
4122;SDS011;2075;51.062;6.920;2023-05-24T09:31:39;12.60;;;6.90;;
4122;SDS011;2075;51.062;6.920;2023-05-24T09:34:24;20.87;;;7.87;;
4122;SDS011;2075;51.062;6.920;2023-05-24T09:37:13;15.82;;;8.50;;
4122;SDS011;2075;51.062;6.920;2023-05-24T09:39:59;17.63;;;8.03;;
4122;SDS011;2075;51.062;6.920;2023-05-24T09:42:45;13.30;;;9.07;;
4122;SDS011;2075;51.062;6.920;2023-05-24T09:45:37;20.50;;;9.30;;
4122;SDS011;2075;51.062;6.920;2023-05-24T09:48:25;24.30;;;9.97;;
4122;SDS011;2075;51.062;6.920;2023-05-24T09:51:10;14.80;;;6.53;;
4122;SDS011;2075;51.062;6.920;2023-05-24T09:53:59;16.30;;;6.73;;
4122;SDS011;2075;51.062;6.920;2023-05-24T09:56:45;13.73;;;6.00;;
4122;SDS011;2075;51.062;6.920;2023-05-24T09:59:32;13.75;;;6.10;;
4122;SDS011;2075;51.062;6.920;2023-05-24T10:02:19;14.40;;;5.20;;
4122;SDS011;2075;51.062;6.920;2023-05-24T10:05:07;10.30;;;5.20;;
4122;SDS011;2075;51.062;6.920;2023-05-24T10:07:56;10.00;;;4.53;;
4122;SDS011;2075;51.062;6.920;2023-05-24T10:10:42;13.13;;;4.37;;
4122;SDS011;2075;51.062;6.920;2023-05-24T10:13:31;12.47;;;4.90;;
4122;SDS011;2075;51.062;6.920;2023-05-24T10:16:18;14.83;;;7.13;;
4122;SDS011;2075;51.062;6.920;2023-05-24T10:19:04;21.13;;;8.57;;
4122;SDS011;2075;51.062;6.920;2023-05-24T10:21:50;18.43;;;8.20;;
4122;SDS011;2075;51.062;6.920;2023-05-24T10:24:37;21.33;;;7.80;;
4122;SDS011;2075;51.062;6.920;2023-05-24T10:27:27;21.37;;;7.83;;
4122;SDS011;2075;51.062;6.920;2023-05-24T10:30:18;26.07;;;7.60;;
4122;SDS011;2075;51.062;6.920;2023-05-24T10:33:11;16.53;;;7.23;;
4122;SDS011;2075;51.062;6.920;2023-05-24T10:35:58;17.00;;;7.60;;
4122;SDS011;2075;51.062;6.920;2023-05-24T10:38:45;14.03;;;6.90;;
4122;SDS011;2075;51.062;6.920;2023-05-24T10:41:37;11.70;;;6.70;;
4122;SDS011;2075;51.062;6.920;2023-05-24T10:44:26;21.27;;;6.43;;
4122;SDS011;2075;51.062;6.920;2023-05-24T10:47:14;17.10;;;7.10;;
4122;SDS011;2075;51.062;6.920;2023-05-24T10:50:01;26.43;;;8.53;;
4122;SDS011;2075;51.062;6.920;2023-05-24T10:53:10;26.97;;;8.60;;
4122;SDS011;2075;51.062;6.920;2023-05-24T10:55:57;15.33;;;7.50;;
4122;SDS011;2075;51.062;6.920;2023-05-24T10:58:44;21.33;;;7.10;;
4122;SDS011;2075;51.062;6.920;2023-05-24T11:01:43;11.17;;;6.43;;
4122;SDS011;2075;51.062;6.920;2023-05-24T11:04:30;16.90;;;6.73;;
4122;SDS011;2075;51.062;6.920;2023-05-24T11:07:18;23.67;;;8.10;;
4122;SDS011;2075;51.062;6.920;2023-05-24T11:10:08;27.33;;;7.17;;
4122;SDS011;2075;51.062;6.920;2023-05-24T11:12:56;20.50;;;6.83;;
4122;SDS011;2075;51.062;6.920;2023-05-24T11:15:48;14.20;;;6.47;;
4122;SDS011;2075;51.062;6.920;2023-05-24T11:18:36;17.03;;;6.30;;
4122;SDS011;2075;51.062;6.920;2023-05-24T11:21:23;24.57;;;7.07;;
4122;SDS011;2075;51.062;6.920;2023-05-24T11:24:09;13.47;;;5.70;;
4122;SDS011;2075;51.062;6.920;2023-05-24T11:26:55;19.50;;;6.53;;
4122;SDS011;2075;51.062;6.920;2023-05-24T11:29:42;10.80;;;5.90;;
4122;SDS011;2075;51.062;6.920;2023-05-24T11:32:28;28.57;;;6.57;;
4122;SDS011;2075;51.062;6.920;2023-05-24T11:35:15;9.60;;;5.50;;
4122;SDS011;2075;51.062;6.920;2023-05-24T11:38:08;11.70;;;5.70;;
4122;SDS011;2075;51.062;6.920;2023-05-24T11:40:56;10.63;;;4.97;;
4122;SDS011;2075;51.062;6.920;2023-05-24T11:43:43;9.30;;;4.97;;
4122;SDS011;2075;51.062;6.920;2023-05-24T11:46:28;12.03;;;5.10;;
4122;SDS011;2075;51.062;6.920;2023-05-24T11:49:14;14.87;;;5.80;;
4122;SDS011;2075;51.062;6.920;2023-05-24T11:52:02;19.30;;;5.40;;
4122;SDS011;2075;51.062;6.920;2023-05-24T11:54:47;11.60;;;4.90;;
4122;SDS011;2075;51.062;6.920;2023-05-24T11:57:36;10.80;;;4.10;;
4122;SDS011;2075;51.062;6.920;2023-05-24T12:00:23;12.73;;;3.90;;
4122;SDS011;2075;51.062;6.920;2023-05-24T12:03:08;10.97;;;4.40;;
4122;SDS011;2075;51.062;6.920;2023-05-24T12:05:55;19.53;;;5.93;;
4122;SDS011;2075;51.062;6.920;2023-05-24T12:08:42;16.60;;;5.63;;
4122;SDS011;2075;51.062;6.920;2023-05-24T12:11:28;13.07;;;5.47;;
4122;SDS011;2075;51.062;6.920;2023-05-24T12:14:14;10.50;;;4.93;;
4122;SDS011;2075;51.062;6.920;2023-05-24T12:17:01;16.80;;;5.00;;
4122;SDS011;2075;51.062;6.920;2023-05-24T12:19:47;10.47;;;4.27;;
4122;SDS011;2075;51.062;6.920;2023-05-24T12:22:35;16.73;;;4.70;;
4122;SDS011;2075;51.062;6.920;2023-05-24T12:25:22;12.60;;;4.10;;
4122;SDS011;2075;51.062;6.920;2023-05-24T12:28:11;14.90;;;4.57;;
4122;SDS011;2075;51.062;6.920;2023-05-24T12:30:57;11.27;;;4.70;;
4122;SDS011;2075;51.062;6.920;2023-05-24T12:33:43;15.63;;;3.93;;
4122;SDS011;2075;51.062;6.920;2023-05-24T12:36:31;14.83;;;4.53;;
4122;SDS011;2075;51.062;6.920;2023-05-24T12:39:19;8.80;;;3.60;;
4122;SDS011;2075;51.062;6.920;2023-05-24T12:42:07;12.77;;;4.03;;
4122;SDS011;2075;51.062;6.920;2023-05-24T12:44:57;10.57;;;4.20;;
4122;SDS011;2075;51.062;6.920;2023-05-24T12:47:50;7.80;;;4.00;;
4122;SDS011;2075;51.062;6.920;2023-05-24T12:50:37;10.40;;;4.17;;
4122;SDS011;2075;51.062;6.920;2023-05-24T12:53:23;12.00;;;4.90;;
4122;SDS011;2075;51.062;6.920;2023-05-24T12:56:09;13.83;;;3.83;;
4122;SDS011;2075;51.062;6.920;2023-05-24T12:58:56;14.83;;;4.13;;
4122;SDS011;2075;51.062;6.920;2023-05-24T13:01:43;11.90;;;3.80;;
4122;SDS011;2075;51.062;6.920;2023-05-24T13:04:33;12.57;;;4.90;;
4122;SDS011;2075;51.062;6.920;2023-05-24T13:07:19;10.30;;;4.20;;
4122;SDS011;2075;51.062;6.920;2023-05-24T13:10:06;13.53;;;4.47;;
4122;SDS011;2075;51.062;6.920;2023-05-24T13:12:52;13.80;;;4.67;;
4122;SDS011;2075;51.062;6.920;2023-05-24T13:15:40;12.47;;;4.43;;
4122;SDS011;2075;51.062;6.920;2023-05-24T13:18:27;11.80;;;3.57;;
4122;SDS011;2075;51.062;6.920;2023-05-24T13:21:13;16.20;;;5.33;;
4122;SDS011;2075;51.062;6.920;2023-05-24T13:23:59;14.37;;;5.13;;
4122;SDS011;2075;51.062;6.920;2023-05-24T13:26:44;17.30;;;4.33;;
4122;SDS011;2075;51.062;6.920;2023-05-24T13:29:30;11.53;;;4.60;;
4122;SDS011;2075;51.062;6.920;2023-05-24T13:32:19;12.00;;;4.63;;
4122;SDS011;2075;51.062;6.920;2023-05-24T13:35:04;18.20;;;4.70;;
4122;SDS011;2075;51.062;6.920;2023-05-24T13:37:50;21.20;;;5.00;;
4122;SDS011;2075;51.062;6.920;2023-05-24T13:40:38;13.90;;;4.00;;
4122;SDS011;2075;51.062;6.920;2023-05-24T13:43:24;15.30;;;4.10;;
4122;SDS011;2075;51.062;6.920;2023-05-24T13:46:10;12.93;;;4.27;;
4122;SDS011;2075;51.062;6.920;2023-05-24T13:48:58;13.77;;;4.20;;
4122;SDS011;2075;51.062;6.920;2023-05-24T13:51:43;16.73;;;4.90;;
4122;SDS011;2075;51.062;6.920;2023-05-24T13:54:29;13.53;;;4.63;;
4122;SDS011;2075;51.062;6.920;2023-05-24T13:57:15;10.30;;;3.37;;
4122;SDS011;2075;51.062;6.920;2023-05-24T14:00:00;11.77;;;4.27;;
4122;SDS011;2075;51.062;6.920;2023-05-24T14:02:49;16.37;;;4.90;;
4122;SDS011;2075;51.062;6.920;2023-05-24T14:05:36;13.17;;;4.43;;
4122;SDS011;2075;51.062;6.920;2023-05-24T14:08:22;9.57;;;4.40;;
4122;SDS011;2075;51.062;6.920;2023-05-24T14:11:08;9.17;;;4.37;;
4122;SDS011;2075;51.062;6.920;2023-05-24T14:13:56;14.20;;;5.00;;
4122;SDS011;2075;51.062;6.920;2023-05-24T14:16:42;11.03;;;4.37;;
4122;SDS011;2075;51.062;6.920;2023-05-24T14:19:28;10.60;;;4.13;;
4122;SDS011;2075;51.062;6.920;2023-05-24T14:22:15;14.23;;;4.23;;
4122;SDS011;2075;51.062;6.920;2023-05-24T14:25:01;14.50;;;4.93;;
4122;SDS011;2075;51.062;6.920;2023-05-24T14:27:46;14.90;;;5.20;;
4122;SDS011;2075;51.062;6.920;2023-05-24T14:30:32;14.47;;;5.13;;
4122;SDS011;2075;51.062;6.920;2023-05-24T14:33:20;15.70;;;5.03;;
4122;SDS011;2075;51.062;6.920;2023-05-24T14:36:06;13.00;;;4.63;;
4122;SDS011;2075;51.062;6.920;2023-05-24T14:38:54;10.13;;;4.63;;
4122;SDS011;2075;51.062;6.920;2023-05-24T14:41:40;10.57;;;4.87;;
4122;SDS011;2075;51.062;6.920;2023-05-24T14:44:26;19.63;;;5.50;;
4122;SDS011;2075;51.062;6.920;2023-05-24T14:47:11;10.90;;;4.43;;
4122;SDS011;2075;51.062;6.920;2023-05-24T14:49:57;11.43;;;4.50;;
4122;SDS011;2075;51.062;6.920;2023-05-24T14:52:44;15.50;;;4.60;;
4122;SDS011;2075;51.062;6.920;2023-05-24T14:55:30;11.57;;;5.10;;
4122;SDS011;2075;51.062;6.920;2023-05-24T14:58:16;14.23;;;5.10;;
4122;SDS011;2075;51.062;6.920;2023-05-24T15:01:02;16.20;;;5.50;;
4122;SDS011;2075;51.062;6.920;2023-05-24T15:03:47;11.57;;;5.17;;
4122;SDS011;2075;51.062;6.920;2023-05-24T15:06:33;11.07;;;4.70;;
4122;SDS011;2075;51.062;6.920;2023-05-24T15:09:19;12.53;;;4.67;;
4122;SDS011;2075;51.062;6.920;2023-05-24T15:12:07;10.03;;;4.57;;
4122;SDS011;2075;51.062;6.920;2023-05-24T15:14:52;10.73;;;4.47;;
4122;SDS011;2075;51.062;6.920;2023-05-24T15:17:38;13.83;;;4.60;;
4122;SDS011;2075;51.062;6.920;2023-05-24T15:20:23;13.20;;;4.77;;
4122;SDS011;2075;51.062;6.920;2023-05-24T15:23:09;15.40;;;5.17;;
4122;SDS011;2075;51.062;6.920;2023-05-24T15:25:54;10.23;;;4.67;;
4122;SDS011;2075;51.062;6.920;2023-05-24T15:28:41;15.97;;;5.20;;
4122;SDS011;2075;51.062;6.920;2023-05-24T15:31:27;15.00;;;5.43;;
4122;SDS011;2075;51.062;6.920;2023-05-24T15:34:12;11.27;;;4.97;;
4122;SDS011;2075;51.062;6.920;2023-05-24T15:36:58;13.80;;;5.43;;
4122;SDS011;2075;51.062;6.920;2023-05-24T15:39:43;10.80;;;5.63;;
4122;SDS011;2075;51.062;6.920;2023-05-24T15:42:29;10.27;;;5.63;;
4122;SDS011;2075;51.062;6.920;2023-05-24T15:45:16;12.40;;;6.40;;
4122;SDS011;2075;51.062;6.920;2023-05-24T15:48:02;15.07;;;6.23;;
4122;SDS011;2075;51.062;6.920;2023-05-24T15:50:48;23.87;;;6.47;;
4122;SDS011;2075;51.062;6.920;2023-05-24T15:53:34;11.60;;;6.60;;
4122;SDS011;2075;51.062;6.920;2023-05-24T15:56:20;20.53;;;6.77;;
4122;SDS011;2075;51.062;6.920;2023-05-24T15:59:06;12.13;;;7.00;;
4122;SDS011;2075;51.062;6.920;2023-05-24T16:01:53;15.77;;;6.20;;
4122;SDS011;2075;51.062;6.920;2023-05-24T16:04:39;15.47;;;6.27;;
4122;SDS011;2075;51.062;6.920;2023-05-24T16:07:24;17.50;;;7.53;;
4122;SDS011;2075;51.062;6.920;2023-05-24T16:10:10;14.53;;;6.03;;
4122;SDS011;2075;51.062;6.920;2023-05-24T16:12:55;15.53;;;5.77;;
4122;SDS011;2075;51.062;6.920;2023-05-24T16:15:41;12.17;;;6.50;;
4122;SDS011;2075;51.062;6.920;2023-05-24T16:18:31;25.67;;;6.73;;
4122;SDS011;2075;51.062;6.920;2023-05-24T16:21:18;11.73;;;5.53;;
4122;SDS011;2075;51.062;6.920;2023-05-24T16:24:04;13.57;;;6.40;;
4122;SDS011;2075;51.062;6.920;2023-05-24T16:26:49;11.67;;;6.17;;
4122;SDS011;2075;51.062;6.920;2023-05-24T16:29:35;11.77;;;5.90;;
4122;SDS011;2075;51.062;6.920;2023-05-24T16:32:23;8.53;;;6.10;;
4122;SDS011;2075;51.062;6.920;2023-05-24T16:35:09;13.60;;;7.10;;
4122;SDS011;2075;51.062;6.920;2023-05-24T16:37:55;21.00;;;6.20;;
4122;SDS011;2075;51.062;6.920;2023-05-24T16:40:40;15.70;;;6.60;;
4122;SDS011;2075;51.062;6.920;2023-05-24T16:43:26;13.90;;;6.30;;
4122;SDS011;2075;51.062;6.920;2023-05-24T16:46:11;15.40;;;6.90;;
4122;SDS011;2075;51.062;6.920;2023-05-24T16:48:56;16.20;;;6.87;;
4122;SDS011;2075;51.062;6.920;2023-05-24T16:51:44;21.10;;;7.77;;
4122;SDS011;2075;51.062;6.920;2023-05-24T16:54:30;13.97;;;7.23;;
4122;SDS011;2075;51.062;6.920;2023-05-24T16:57:15;18.73;;;7.20;;
4122;SDS011;2075;51.062;6.920;2023-05-24T17:00:00;21.80;;;7.57;;
4122;SDS011;2075;51.062;6.920;2023-05-24T17:02:46;11.33;;;6.50;;
4122;SDS011;2075;51.062;6.920;2023-05-24T17:05:32;11.83;;;6.77;;
4122;SDS011;2075;51.062;6.920;2023-05-24T17:08:19;12.17;;;6.60;;
4122;SDS011;2075;51.062;6.920;2023-05-24T17:11:05;22.03;;;7.67;;
4122;SDS011;2075;51.062;6.920;2023-05-24T17:13:51;22.90;;;7.40;;
4122;SDS011;2075;51.062;6.920;2023-05-24T17:16:36;19.97;;;7.00;;